Broken Arrow, OK

4:51 AM CST on March 05, 2015 (GMT -0600)
71st and Garnett | Change Station
CLOSE
Current Station
Personal Weather Station
Location: Broken Arrow, OK
Elevation: 720 ft
Nearby Weather Stations

Elev 720 ft 36.06 °N, 95.85 °W | Updated 3 seconds ago

Clear
Clear
21.2 °F
Feels Like 21 °F
N
1.0
Wind Variable Wind from North
Gusts 2.0 mph

Today
High -- | Low -- °F
--% Chance of Precip.
Yesterday
High -- | Low -- °F
Precip. -- in
6:48 AM 6:21 PM
Full, 100% visible
Pressure 30.52 in
Visibility 10.0 miles
Clouds Clear
Windchill 21 °F
Dew Point 12 °F
Humidity 68%
Rainfall in
Snow Depth Not available.
UV 0.0 out of 12
Pollen 1.00 out of 12
Air Quality Not available.
Flu Activity Not available.
METAR KRVS 050953Z AUTO 33003KT 10SM CLR M06/M12 A3048 RMK AO2 SLP334 T10611117

More Conditions Fewer Conditions

Pressure 30.52 in
Visibility 10.0 miles
Clouds Clear
Windchill 21 °F
Dew Point 12 °F
Humidity 68%
Rainfall in
Snow Depth Not available.
UV 0.0 out of 12
Pollen 1.00 out of 12
Air Quality Not available.
Flu Activity Not available.
METAR KRVS 050953Z AUTO 33003KT 10SM CLR M06/M12 A3048 RMK AO2 SLP334 T10611117

More Conditions Fewer Conditions

Nowcast | as of 3:09 am CST on March 5, 2015

At 3 am...weather radars continued to indicate light snow across far southeast Oklahoma...primarily across portions of Pushmataha and Choctaw counties. Through 5 am...the snow will continue to diminish across far southeast Oklahoma and no additional snow accumulation is expected. This will be the final short term forecast for this event.

×

10-Day Weather Forecast

Almanac

Astronomy

Mar. 05, 2015 Rise Set
Actual Time
Civil Twilight
Nautical Twilight
Astronomical Twilight
Moon
Length of Visible Light
Length of Day
Tomorrow will be .
, % of the Moon is Illuminated

Today's Extremes

State Highs State Lows

Community

WunderPhotos

Upload Photos

1,802,714 photos uploaded!

WunderBlogs® & News

Nearby

Air Quality

  Air Quality AQ Index Pollutant
Not available.

Snow Depth

Station Depth Elevation

Earthquake Activity

City Distance Mag. Time & Date
Minimum magnitude displayed is 2.5.

Coastal Water Temperatures

Place Temperature

Nearby Weather Stations